Time;durP1;ratioP1;P1;durP2;ratioP2;P2;SDS_P1;SDS_P2;PMS_P1;PMS_P2;Temp;Humidity;BMP_temperature;BMP_pressure;BME280_temperature;BME280_humidity;BME280_pressure;Samples;Min_cycle;Max_cycle;Signal;HPM_P1;HPM_P2
2022/11/16 00:01:06;;;;;;;12.52;7.10;;;;;;;10.75;98.34;98656.34;6059430;23;20046;-83
2022/11/16 00:03:33;;;;;;;14.13;7.90;;;;;;;10.75;98.49;98648.38;6059536;23;20018;-83
2022/11/16 00:06:02;;;;;;;13.02;7.32;;;;;;;10.78;98.31;98642.72;6037562;23;20022;-83
2022/11/16 00:08:32;;;;;;;13.32;7.65;;;;;;;10.78;98.22;98653.34;6084213;23;20023;-82
2022/11/16 00:11:07;;;;;;;16.40;7.57;;;;;;;10.74;98.83;98658.19;6012790;23;20054;-83
2022/11/16 00:13:34;;;;;;;11.32;6.93;;;;;;;10.77;98.80;98655.19;5988013;23;20026;-83
2022/11/16 00:16:02;;;;;;;11.77;7.30;;;;;;;10.76;98.85;98650.03;6033737;23;20023;-83
2022/11/16 00:18:29;;;;;;;12.13;7.20;;;;;;;10.75;98.78;98654.53;6065354;23;20027;-83
2022/11/16 00:20:56;;;;;;;12.60;7.22;;;;;;;10.75;98.83;98661.66;6148833;23;20464;-83
2022/11/16 00:23:23;;;;;;;9.23;6.30;;;;;;;10.72;99.16;98660.16;6148933;23;20123;-83
2022/11/16 00:25:50;;;;;;;14.57;7.78;;;;;;;10.71;99.04;98662.97;6094234;23;20022;-83
2022/11/16 00:28:17;;;;;;;15.45;7.75;;;;;;;10.70;99.21;98658.66;6148926;23;20025;-83
2022/11/16 00:30:45;;;;;;;12.60;7.68;;;;;;;10.69;99.04;98662.34;6124269;23;20020;-83
2022/11/16 00:33:16;;;;;;;12.75;8.10;;;;;;;10.69;99.10;98659.69;6173856;23;20404;-83
2022/11/16 00:35:43;;;;;;;9.57;7.15;;;;;;;10.69;99.17;98657.03;6147453;23;20021;-82
2022/11/16 00:38:10;;;;;;;14.23;8.82;;;;;;;10.69;99.34;98662.34;6122323;23;20021;-83
2022/11/16 00:40:37;;;;;;;13.93;7.93;;;;;;;10.68;99.14;98658.81;6121888;23;20020;-83
2022/11/16 00:43:04;;;;;;;11.50;7.53;;;;;;;10.69;99.24;98659.69;6148476;23;20025;-83
2022/11/16 00:45:31;;;;;;;13.32;7.80;;;;;;;10.69;99.10;98654.38;6174103;23;20449;-83
2022/11/16 00:47:57;;;;;;;13.25;7.80;;;;;;;10.67;99.21;98659.00;6100025;23;20049;-83
2022/11/16 00:50:27;;;;;;;14.85;8.10;;;;;;;10.70;99.22;98669.28;6126052;23;20033;-83
2022/11/16 00:52:53;;;;;;;11.45;7.50;;;;;;;10.68;99.73;98663.31;6125103;23;20076;-83
2022/11/16 00:55:21;;;;;;;13.00;7.45;;;;;;;10.67;99.64;98666.97;6124663;23;20353;-83
2022/11/16 00:57:48;;;;;;;13.48;6.53;;;;;;;10.68;99.47;98660.66;6124200;23;20033;-84
2022/11/16 01:00:17;;;;;;;9.43;6.82;;;;;;;10.68;99.06;98664.13;6101925;23;20017;-83
2022/11/16 01:02:44;;;;;;;14.20;7.07;;;;;;;10.68;99.43;98669.44;6148587;23;20028;-83
2022/11/16 01:05:11;;;;;;;10.90;7.72;;;;;;;10.70;99.21;98667.47;6148983;23;20020;-83
2022/11/16 01:07:39;;;;;;;11.23;6.55;;;;;;;10.69;99.55;98665.00;6148904;23;20043;-83
2022/11/16 01:10:10;;;;;;;10.88;7.53;;;;;;;10.68;99.46;98650.84;6124753;23;20024;-83
2022/11/16 01:12:36;;;;;;;13.60;6.85;;;;;;;10.64;99.58;98650.38;6123429;23;20076;-82
2022/11/16 01:15:05;;;;;;;11.18;7.20;;;;;;;10.64;99.35;98650.38;6168623;23;20025;-83
2022/11/16 01:17:32;;;;;;;10.40;6.53;;;;;;;10.65;99.39;98649.38;6146550;23;20044;-83
2022/11/16 01:19:59;;;;;;;9.93;6.88;;;;;;;10.62;99.80;98652.34;6149240;23;20017;-82
2022/11/16 01:22:26;;;;;;;12.05;7.22;;;;;;;10.61;99.77;98642.75;6124178;23;20453;-83
2022/11/16 01:24:52;;;;;;;12.30;6.43;;;;;;;10.61;99.79;98650.72;6169082;23;20400;-83
2022/11/16 01:27:19;;;;;;;16.13;7.20;;;;;;;10.60;99.88;98635.75;6148246;23;20108;-82
2022/11/16 01:29:46;;;;;;;10.07;7.07;;;;;;;10.62;99.84;98628.47;6147625;23;20017;-82
2022/11/16 01:32:12;;;;;;;11.52;7.07;;;;;;;10.65;99.69;98619.34;6125524;23;20112;-82
2022/11/16 01:34:40;;;;;;;11.70;7.00;;;;;;;10.65;99.69;98616.69;6127138;23;20021;-83
2022/11/16 01:37:19;;;;;;;9.23;6.18;;;;;;;10.64;99.81;98610.56;6173406;23;20021;-83
2022/11/16 01:39:48;;;;;;;12.57;7.38;;;;;;;10.65;99.46;98611.38;6100611;23;20024;-83
2022/11/16 01:42:20;;;;;;;13.95;6.57;;;;;;;10.61;99.38;98612.72;6148792;23;20429;-83
2022/11/16 01:44:56;;;;;;;8.50;6.53;;;;;;;10.64;99.34;98620.34;6151332;23;20348;-83
2022/11/16 01:47:23;;;;;;;11.13;6.53;;;;;;;10.62;99.71;98612.53;6125743;23;24987;-83
2022/11/16 01:50:05;;;;;;;10.35;6.68;;;;;;;10.56;99.25;98612.38;6173863;23;20453;-83
2022/11/16 01:52:36;;;;;;;12.07;7.15;;;;;;;10.61;99.95;98615.38;6100182;23;20048;-82
2022/11/16 01:55:03;;;;;;;11.48;6.95;;;;;;;10.59;99.84;98612.88;6175304;23;20334;-82
2022/11/16 01:57:43;;;;;;;9.40;6.40;;;;;;;10.59;100.00;98610.22;6102502;23;20111;-82
2022/11/16 02:00:13;;;;;;;11.00;7.20;;;;;;;10.60;99.76;98614.53;6149524;23;20079;-82
2022/11/16 02:02:41;;;;;;;10.48;6.32;;;;;;;10.62;99.79;98603.75;6151110;23;20344;-82
2022/11/16 02:05:23;;;;;;;10.25;6.68;;;;;;;10.61;99.84;98610.06;6125203;23;20025;-82
2022/11/16 02:11:14;;;;;;;11.43;7.50;;;;;;;10.52;100.00;98603.91;6086827;23;20318;-83
2022/11/16 02:13:45;;;;;;;9.00;6.25;;;;;;;10.61;100.00;98600.28;6144904;23;20472;-82
2022/11/16 02:16:31;;;;;;;10.65;7.15;;;;;;;10.62;100.00;98598.44;6123025;23;20021;-82
2022/11/16 02:19:26;;;;;;;9.00;6.57;;;;;;;10.52;100.00;98589.81;6102918;23;20357;-82
2022/11/16 02:22:19;;;;;;;11.27;7.35;;;;;;;10.49;100.00;98585.66;6060585;23;20091;-82
2022/11/16 02:25:01;;;;;;;10.13;6.35;;;;;;;10.56;100.00;98594.63;6153226;23;20017;-82
2022/11/16 02:27:27;;;;;;;10.35;6.70;;;;;;;10.60;100.00;98587.16;6146397;23;20024;-82
2022/11/16 02:29:55;;;;;;;13.27;6.60;;;;;;;10.61;99.98;98583.53;6173647;23;20028;-83
2022/11/16 02:32:27;;;;;;;12.75;7.28;;;;;;;10.57;100.00;98590.16;6148334;23;20091;-83
2022/11/16 02:35:09;;;;;;;10.05;7.03;;;;;;;10.55;99.99;98586.81;6150617;23;20464;-83
2022/11/16 02:37:39;;;;;;;10.95;7.10;;;;;;;10.60;100.00;98587.97;6071875;23;20025;-82
2022/11/16 02:40:09;;;;;;;9.93;7.78;;;;;;;10.62;99.56;98586.00;6144658;23;20032;-82
2022/11/16 02:42:43;;;;;;;10.32;7.18;;;;;;;10.61;99.90;98592.31;6169794;23;20033;-82
2022/11/16 02:45:15;;;;;;;8.98;6.40;;;;;;;10.64;99.83;98601.75;6151027;23;20021;-82
2022/11/16 02:47:43;;;;;;;13.13;7.72;;;;;;;10.68;100.00;98595.09;6149389;23;20445;-82
2022/11/16 02:50:16;;;;;;;8.93;6.75;;;;;;;10.67;99.90;98592.63;6124465;23;20027;-81
2022/11/16 02:52:43;;;;;;;12.13;6.55;;;;;;;10.65;100.00;98596.28;6097545;23;20380;-82
2022/11/16 02:55:10;;;;;;;12.48;7.53;;;;;;;10.69;100.00;98595.97;6149477;23;20022;-82
2022/11/16 02:57:49;;;;;;;12.43;6.97;;;;;;;10.62;100.00;98587.81;6173929;23;20089;-82
2022/11/16 03:00:20;;;;;;;12.20;7.80;;;;;;;10.65;100.00;98582.16;6100724;23;20074;-83
2022/11/16 03:03:00;;;;;;;11.93;7.80;;;;;;;10.58;100.00;98584.69;6148218;23;20116;-82
2022/11/16 03:05:31;;;;;;;10.98;7.03;;;;;;;10.63;100.00;98586.81;6122763;23;20084;-82
2022/11/16 03:08:28;;;;;;;10.80;7.28;;;;;;;10.62;100.00;98585.16;6096480;23;20449;-81
2022/11/16 03:13:59;;;;;;;9.07;7.00;;;;;;;10.62;100.00;98587.81;6103373;23;20017;-82
2022/11/16 03:16:30;;;;;;;;;;;;;;;10.48;100.00;98586.69;6119254;23;20453;-83
2022/11/16 03:19:01;;;;;;;12.93;7.25;;;;;;;10.60;100.00;98585.31;6141899;23;19924;-81
2022/11/16 03:21:44;;;;;;;11.68;7.45;;;;;;;10.62;100.00;98585.16;6118487;23;20091;-81
2022/11/16 03:24:12;;;;;;;10.55;8.05;;;;;;;10.68;100.00;98581.00;6095508;23;20021;-81
2022/11/16 03:26:49;;;;;;;11.82;7.35;;;;;;;10.62;100.00;98578.03;6095725;23;20311;-81
2022/11/16 03:29:25;;;;;;;12.25;6.90;;;;;;;10.63;100.00;98590.31;6120292;23;20059;-82
2022/11/16 03:32:02;;;;;;;10.30;7.40;;;;;;;10.64;100.00;98585.84;6073814;23;20066;-81
2022/11/16 03:34:32;;;;;;;10.57;7.25;;;;;;;10.67;100.00;98588.16;6047056;23;20329;-82
2022/11/16 03:36:59;;;;;;;12.30;7.13;;;;;;;10.69;100.00;98585.34;6118060;23;20062;-81
2022/11/16 03:39:30;;;;;;;13.13;8.10;;;;;;;10.65;100.00;98587.47;6142583;23;20100;-81
2022/11/16 03:41:58;;;;;;;12.10;7.28;;;;;;;10.68;100.00;98587.13;6119510;23;20076;-81
2022/11/16 03:44:27;;;;;;;10.90;7.20;;;;;;;10.69;100.00;98582.69;6096249;23;20134;-81
2022/11/16 03:46:53;;;;;;;9.95;7.22;;;;;;;10.69;100.00;98582.69;6094457;23;20108;-81
2022/11/16 03:49:22;;;;;;;14.00;7.38;;;;;;;10.70;100.00;98579.03;6117399;23;20048;-82
2022/11/16 03:51:51;;;;;;;11.52;7.30;;;;;;;10.70;100.00;98584.34;6118828;23;20080;-81
2022/11/16 03:54:18;;;;;;;10.23;7.38;;;;;;;10.67;100.00;98577.53;6118925;23;20032;-81
2022/11/16 03:56:45;;;;;;;13.43;7.90;;;;;;;10.70;100.00;98585.16;6144778;23;20100;-81
2022/11/16 03:59:11;;;;;;;10.60;7.68;;;;;;;10.71;100.00;98583.31;6120098;23;20808;-81
2022/11/16 04:01:38;;;;;;;13.10;7.32;;;;;;;10.69;100.00;98582.69;6143417;23;20472;-81
2022/11/16 04:24:10;;;;;;;11.35;7.50;;;;;;;10.68;100.00;98579.19;6090282;23;20077;-83
2022/11/16 04:26:18;;;;;;;11.23;8.10;;;;;;;10.70;100.00;98587.81;6074283;23;20031;-82
2022/11/16 04:29:05;;;;;;;9.45;6.78;;;;;;;10.72;100.00;98591.13;6071147;23;20029;-83
2022/11/16 04:40:00;;;;;;;10.55;7.32;;;;;;;10.74;100.00;98588.31;5999156;23;20026;-82
2022/11/16 04:42:27;;;;;;;9.43;7.38;;;;;;;10.73;100.00;98584.81;6062078;23;20025;-83
2022/11/16 04:47:51;;;;;;;11.02;7.50;;;;;;;10.73;100.00;98584.81;6003397;23;20049;-83
2022/11/16 04:50:21;;;;;;;12.68;8.32;;;;;;;10.72;100.00;98577.03;6040520;23;20050;-82
2022/11/16 04:52:50;;;;;;;11.27;8.20;;;;;;;10.70;100.00;98582.50;6061020;23;20026;-82
2022/11/16 04:55:17;;;;;;;14.05;8.60;;;;;;;10.72;100.00;98588.47;6040902;23;20414;-82
2022/11/16 04:57:45;;;;;;;11.68;7.95;;;;;;;10.71;100.00;98588.63;6042231;23;20409;-82
2022/11/16 05:00:13;;;;;;;12.63;8.13;;;;;;;10.76;100.00;98610.19;6041276;23;20025;-83
2022/11/16 05:02:40;;;;;;;12.90;8.32;;;;;;;10.75;100.00;98608.56;6039361;23;20040;-83
2022/11/16 05:05:07;;;;;;;11.40;7.60;;;;;;;10.76;100.00;98605.75;6074917;23;20068;-82
2022/11/16 05:07:37;;;;;;;12.77;7.80;;;;;;;10.75;100.00;98600.59;6095513;23;20048;-82
2022/11/16 05:10:13;;;;;;;13.45;8.38;;;;;;;10.75;100.00;98600.59;6144828;23;20133;-82
2022/11/16 05:12:41;;;;;;;14.80;8.55;;;;;;;10.74;100.00;98591.81;6119122;23;20425;-82
2022/11/16 05:15:09;;;;;;;13.18;8.07;;;;;;;10.74;100.00;98589.16;6141888;23;20096;-82
2022/11/16 05:17:36;;;;;;;10.85;7.32;;;;;;;10.74;100.00;98589.16;6141058;23;20037;-82
2022/11/16 05:22:58;;;;;;;13.20;8.25;;;;;;;10.71;100.00;98581.53;6120933;23;20120;-82
2022/11/16 05:25:29;;;;;;;11.70;7.45;;;;;;;10.70;100.00;98590.47;6143104;23;20025;-82
2022/11/16 05:28:04;;;;;;;13.07;8.00;;;;;;;10.70;100.00;98592.28;6093372;23;20017;-81
2022/11/16 05:30:34;;;;;;;11.65;8.43;;;;;;;10.71;100.00;98596.59;6120826;23;20097;-82
2022/11/16 05:33:02;;;;;;;11.35;7.80;;;;;;;10.71;100.00;98593.94;6096026;23;20017;-81
2022/11/16 05:35:32;;;;;;;12.90;8.80;;;;;;;10.73;100.00;98597.28;6146007;23;20028;-81
2022/11/16 05:38:00;;;;;;;13.75;8.05;;;;;;;10.70;100.00;98594.94;6144882;23;20029;-81
2022/11/16 05:40:28;;;;;;;11.48;7.88;;;;;;;10.72;100.00;98599.09;6100157;23;20029;-81
2022/11/16 05:42:57;;;;;;;11.18;7.65;;;;;;;10.72;100.00;98595.63;6096195;23;20471;-82
2022/11/16 05:45:26;;;;;;;10.95;7.55;;;;;;;10.72;100.00;98606.25;6171142;23;20100;-82
2022/11/16 05:47:54;;;;;;;12.88;8.35;;;;;;;10.68;100.00;98605.72;6148975;23;20071;-81
2022/11/16 05:50:21;;;;;;;9.60;7.38;;;;;;;10.70;100.00;98605.56;6148273;23;20409;-81
2022/11/16 05:53:00;;;;;;;12.63;7.53;;;;;;;10.69;100.00;98609.22;6145876;23;20021;-81
2022/11/16 05:55:27;;;;;;;13.75;7.88;;;;;;;10.70;100.00;98605.56;6099566;23;20340;-81
2022/11/16 05:57:54;;;;;;;12.73;7.70;;;;;;;10.72;100.00;98612.38;6146802;23;20025;-81
2022/11/16 06:00:21;;;;;;;10.52;7.32;;;;;;;10.73;100.00;98610.53;6123990;23;20052;-79
2022/11/16 06:02:50;;;;;;;9.93;7.57;;;;;;;10.73;100.00;98610.53;6149043;23;20025;-79
2022/11/16 06:05:22;;;;;;;7.90;6.15;;;;;;;10.72;100.00;98616.88;6117859;23;20030;-79
2022/11/16 06:07:49;;;;;;;12.05;7.47;;;;;;;10.72;100.00;98612.38;6144767;23;20028;-78
2022/11/16 06:10:17;;;;;;;10.30;7.43;;;;;;;10.72;100.00;98614.22;6122328;23;20017;-79
2022/11/16 06:12:47;;;;;;;10.32;7.43;;;;;;;10.73;100.00;98615.84;6148977;23;20100;-79
2022/11/16 06:15:13;;;;;;;12.63;8.35;;;;;;;10.75;100.00;98613.88;6148524;23;20508;-79
2022/11/16 06:17:40;;;;;;;10.52;7.78;;;;;;;10.75;100.00;98617.34;6173117;23;20029;-80
2022/11/16 06:20:09;;;;;;;13.10;8.30;;;;;;;10.74;100.00;98618.34;6125562;23;20033;-79
2022/11/16 06:22:36;;;;;;;9.75;7.20;;;;;;;10.72;100.00;98622.16;6195162;23;20025;-79
2022/11/16 06:25:05;;;;;;;11.18;7.72;;;;;;;10.73;100.00;98623.81;6172757;23;20020;-79
2022/11/16 06:27:39;;;;;;;12.60;9.10;;;;;;;10.71;100.00;98616.03;6151630;23;20040;-79
2022/11/16 06:30:07;;;;;;;11.60;7.95;;;;;;;10.71;100.00;98623.16;6176489;23;20044;-79
2022/11/16 06:32:34;;;;;;;11.00;7.95;;;;;;;10.70;100.00;98627.63;6123766;23;20353;-79
2022/11/16 06:35:03;;;;;;;8.93;7.13;;;;;;;10.70;100.00;98630.28;6126149;23;20021;-79
2022/11/16 06:37:31;;;;;;;11.90;7.75;;;;;;;10.68;100.00;98629.63;6176286;23;20027;-79
2022/11/16 06:39:57;;;;;;;12.77;8.35;;;;;;;10.68;100.00;98634.09;6146540;23;20022;-79
2022/11/16 06:42:25;;;;;;;10.52;7.53;;;;;;;10.68;100.00;98626.16;6198855;22;20340;-79
2022/11/16 06:44:53;;;;;;;12.65;7.47;;;;;;;10.70;100.00;98624.97;6149561;23;20444;-80
2022/11/16 06:47:25;;;;;;;10.98;7.95;;;;;;;10.73;100.00;98631.78;6144423;23;20530;-79
2022/11/16 06:49:52;;;;;;;11.30;7.72;;;;;;;10.76;100.00;98631.44;6125831;23;20023;-79
2022/11/16 06:52:21;;;;;;;13.45;7.30;;;;;;;10.77;100.00;98633.13;6169829;23;20033;-79
2022/11/16 06:54:48;;;;;;;10.95;7.28;;;;;;;10.77;100.00;98631.28;6123696;23;20104;-79
2022/11/16 06:57:16;;;;;;;10.45;7.30;;;;;;;10.79;100.00;98636.44;6142240;23;20021;-79
2022/11/16 06:59:43;;;;;;;13.23;7.65;;;;;;;10.79;100.00;98642.59;6137620;23;20025;-79
2022/11/16 07:02:11;;;;;;;11.88;7.18;;;;;;;10.81;100.00;98645.91;6125608;23;20028;-79
2022/11/16 07:04:38;;;;;;;10.20;6.78;;;;;;;10.82;100.00;98644.06;6194036;23;20092;-79
2022/11/16 07:07:06;;;;;;;12.07;7.63;;;;;;;10.86;100.00;98643.59;6197143;23;20021;-80
2022/11/16 07:09:35;;;;;;;13.60;7.60;;;;;;;10.88;100.00;98648.69;6139463;23;20014;-79
2022/11/16 07:12:03;;;;;;;13.82;7.88;;;;;;;10.91;99.53;98645.72;6190311;23;20096;-78
2022/11/16 07:14:34;;;;;;;10.32;6.78;;;;;;;10.90;99.69;98649.38;6146823;23;20052;-79
2022/11/16 07:17:03;;;;;;;9.40;5.97;;;;;;;10.95;99.61;98655.00;6121878;23;20032;-79
2022/11/16 07:19:35;;;;;;;9.10;6.03;;;;;;;10.95;99.87;98655.00;6150955;23;20092;-79
2022/11/16 07:22:03;;;;;;;7.47;5.55;;;;;;;10.98;99.40;98660.00;6140123;23;20092;-79
2022/11/16 07:24:30;;;;;;;7.78;4.90;;;;;;;10.99;99.30;98663.47;6116666;23;20021;-80
2022/11/16 07:26:57;;;;;;;6.68;5.07;;;;;;;11.02;99.66;98665.81;6118168;23;20013;-79
2022/11/16 07:29:26;;;;;;;9.75;6.10;;;;;;;11.03;99.49;98678.09;6120073;23;20475;-79
2022/11/16 07:32:17;;;;;;;7.68;5.22;;;;;;;11.03;99.85;98673.59;6064665;23;20020;-79
2022/11/16 07:35:07;;;;;;;8.60;4.80;;;;;;;11.04;100.00;98675.28;6099024;23;20025;-79
2022/11/16 07:37:36;;;;;;;8.60;5.15;;;;;;;11.06;99.86;98677.75;6146064;23;20100;-79
2022/11/16 07:40:04;;;;;;;7.30;4.38;;;;;;;11.08;99.87;98678.41;6124081;23;20040;-79
2022/11/16 07:42:30;;;;;;;9.65;5.30;;;;;;;11.11;99.99;98682.56;6149020;23;20036;-81
2022/11/16 07:45:06;;;;;;;9.50;4.88;;;;;;;11.12;99.88;98692.19;6149708;23;20024;-79
2022/11/16 07:47:38;;;;;;;7.87;5.60;;;;;;;11.11;100.00;98683.38;6148269;23;20031;-80
2022/11/16 07:50:09;;;;;;;6.15;4.65;;;;;;;11.15;99.94;98681.25;6172739;23;20408;-79
2022/11/16 07:52:36;;;;;;;7.35;5.28;;;;;;;11.16;100.00;98689.03;6125249;23;20383;-79
2022/11/16 07:55:11;;;;;;;6.95;4.90;;;;;;;11.17;99.87;98690.72;6148606;23;20052;-79
2022/11/16 07:57:40;;;;;;;7.28;4.55;;;;;;;11.19;99.95;98690.53;6173847;23;20428;-80
2022/11/16 08:00:08;;;;;;;7.15;5.10;;;;;;;11.21;99.78;98693.84;6194817;23;20357;-79
2022/11/16 08:02:46;;;;;;;9.20;5.20;;;;;;;11.22;100.00;98692.84;6148965;23;20044;-79
2022/11/16 08:05:17;;;;;;;9.07;5.55;;;;;;;11.22;99.64;98700.81;6150822;23;20021;-80
2022/11/16 08:07:44;;;;;;;10.43;5.32;;;;;;;11.24;99.72;98704.13;6173679;23;20021;-79
2022/11/16 08:10:11;;;;;;;9.02;5.28;;;;;;;11.24;99.48;98699.63;6173905;23;20040;-80
2022/11/16 08:12:39;;;;;;;8.00;4.47;;;;;;;11.26;99.59;98708.28;6147921;23;20017;-79
2022/11/16 08:15:07;;;;;;;9.18;4.78;;;;;;;11.28;99.56;98710.78;6122346;23;20017;-79
2022/11/16 08:17:33;;;;;;;12.07;6.18;;;;;;;11.29;99.63;98712.44;6149838;23;20024;-79
2022/11/16 08:20:02;;;;;;;8.07;4.95;;;;;;;11.30;99.35;98714.09;6124950;23;20023;-79
2022/11/16 08:22:29;;;;;;;7.00;5.07;;;;;;;11.30;99.52;98712.28;6123132;23;20096;-79
2022/11/16 08:24:56;;;;;;;8.25;5.10;;;;;;;11.32;99.33;98712.09;6146397;23;20073;-80
2022/11/16 08:27:24;;;;;;;8.40;4.22;;;;;;;11.34;99.03;98717.25;6148572;23;20044;-79
2022/11/16 08:29:54;;;;;;;8.93;4.60;;;;;;;11.34;98.99;98715.41;6150377;23;20053;-79
2022/11/16 08:32:21;;;;;;;8.13;4.88;;;;;;;11.35;98.79;98713.59;6173284;23;20083;-79
2022/11/16 08:34:48;;;;;;;8.95;5.13;;;;;;;11.35;99.05;98713.59;6121822;23;20471;-80
2022/11/16 08:37:15;;;;;;;6.25;4.70;;;;;;;11.35;99.03;98717.09;6122837;23;20388;-79
2022/11/16 08:39:43;;;;;;;5.80;4.15;;;;;;;11.36;99.02;98715.25;6122357;23;20093;-79
2022/11/16 08:42:10;;;;;;;7.35;4.82;;;;;;;11.36;98.84;98712.59;6123720;23;20035;-80
2022/11/16 08:44:38;;;;;;;8.05;4.60;;;;;;;11.35;98.67;98714.44;6198715;23;20052;-81
2022/11/16 08:47:10;;;;;;;7.32;4.32;;;;;;;11.36;98.64;98726.72;6148352;23;20017;-81
2022/11/16 08:49:49;;;;;;;7.57;4.28;;;;;;;11.37;98.65;98724.88;6116637;23;20061;-81
2022/11/16 08:52:18;;;;;;;9.35;4.10;;;;;;;11.37;98.49;98730.19;6094353;23;20032;-80
2022/11/16 08:54:46;;;;;;;7.25;3.65;;;;;;;11.39;98.71;98725.53;6119870;23;20437;-80
2022/11/16 08:57:12;;;;;;;10.90;3.65;;;;;;;11.41;98.32;98729.69;6123236;23;20033;-80
2022/11/16 08:59:41;;;;;;;5.90;3.55;;;;;;;11.40;98.39;98733.38;6163464;23;20442;-80
2022/11/16 09:02:11;;;;;;;10.43;3.70;;;;;;;11.43;98.56;98732.19;6164650;23;20116;-80
2022/11/16 09:04:38;;;;;;;8.70;3.72;;;;;;;11.44;98.58;98728.53;6125146;23;20023;-80
2022/11/16 09:07:05;;;;;;;7.75;3.15;;;;;;;11.44;98.59;98725.88;6173141;23;20829;-80
2022/11/16 09:09:32;;;;;;;6.40;3.17;;;;;;;11.46;98.57;98726.53;6173002;23;20754;-81
2022/11/16 09:11:58;;;;;;;7.00;3.50;;;;;;;11.48;98.64;98730.69;6170680;23;20452;-80
2022/11/16 09:14:27;;;;;;;5.18;3.25;;;;;;;11.49;98.62;98742.97;6147737;23;20086;-80
2022/11/16 09:16:54;;;;;;;6.15;3.38;;;;;;;11.52;98.56;98739.16;6149651;23;20017;-81
2022/11/16 09:19:21;;;;;;;5.13;3.00;;;;;;;11.52;98.45;98737.34;6173942;23;20480;-80
2022/11/16 09:21:47;;;;;;;6.10;3.03;;;;;;;11.55;98.23;98733.50;6142227;23;20104;-80
2022/11/16 09:24:14;;;;;;;5.57;2.85;;;;;;;11.56;98.30;98735.16;6144538;23;20032;-81
2022/11/16 09:26:41;;;;;;;4.53;2.90;;;;;;;11.58;98.21;98735.00;6170268;23;20111;-80
2022/11/16 09:29:12;;;;;;;4.88;2.85;;;;;;;11.59;97.83;98745.44;6147767;23;20092;-80
2022/11/16 09:31:39;;;;;;;6.57;2.50;;;;;;;11.63;98.18;98741.47;6146729;23;20076;-80
2022/11/16 09:34:06;;;;;;;6.30;3.00;;;;;;;11.65;98.23;98734.16;6123018;23;20025;-81
2022/11/16 09:36:33;;;;;;;7.13;2.38;;;;;;;11.69;97.97;98731.97;6145716;23;20020;-80
2022/11/16 09:38:59;;;;;;;5.20;2.70;;;;;;;11.73;97.54;98730.66;6170019;23;20021;-80
2022/11/16 09:42:18;;;;;;;4.72;2.20;;;;;;;11.68;97.20;98727.66;6121564;23;20029;-82
2022/11/16 09:44:50;;;;;;;6.93;3.03;;;;;;;11.76;97.22;98730.31;6131676;23;20021;-81
2022/11/16 09:47:20;;;;;;;7.50;2.20;;;;;;;11.82;97.18;98734.09;6169657;23;20048;-81
2022/11/16 09:49:52;;;;;;;7.78;2.28;;;;;;;11.84;97.22;98742.75;6173106;23;20568;-81
2022/11/16 09:52:31;;;;;;;8.07;2.05;;;;;;;11.83;96.97;98744.59;6173094;23;20066;-81
2022/11/16 09:55:00;;;;;;;10.10;2.33;;;;;;;11.88;97.10;98747.59;6149569;23;20075;-83
2022/11/16 09:57:32;;;;;;;6.93;2.17;;;;;;;11.90;96.79;98747.41;6150658;23;20108;-80
2022/11/16 10:00:10;;;;;;;6.97;2.40;;;;;;;11.88;96.47;98746.75;6097293;23;20043;-81
2022/11/16 10:02:44;;;;;;;4.38;2.38;;;;;;;11.92;96.46;98748.06;6175357;23;20025;-80
2022/11/16 10:05:13;;;;;;;;;;;;;;;11.77;96.19;98749.75;6149367;23;20069;-81
2022/11/16 10:07:45;;;;;;;5.75;1.88;;;;;;;11.88;96.46;98755.56;6200308;23;19916;-81
2022/11/16 10:10:14;;;;;;;3.67;2.15;;;;;;;11.92;96.52;98756.88;6175283;23;20083;-80
2022/11/16 10:12:45;;;;;;;4.75;2.08;;;;;;;11.92;96.21;98753.41;6149172;23;20380;-81
2022/11/16 10:15:19;;;;;;;4.88;2.00;;;;;;;11.87;96.03;98745.91;6174355;23;20381;-81
2022/11/16 10:18:06;;;;;;;6.68;3.17;;;;;;;11.89;95.95;98748.41;6174349;23;20045;-80
2022/11/16 10:21:03;;;;;;;8.05;2.80;;;;;;;11.83;95.93;98741.06;6102949;23;20057;-81
2022/11/16 10:23:59;;;;;;;5.32;2.00;;;;;;;11.79;95.75;98748.56;6127291;23;20352;-80
2022/11/16 10:26:33;;;;;;;8.25;2.58;;;;;;;11.85;95.96;98739.06;6051465;23;20017;-80
2022/11/16 10:29:37;;;;;;;8.07;2.13;;;;;;;11.79;95.68;98729.97;6173168;23;20024;-81
2022/11/16 10:32:14;;;;;;;6.20;1.98;;;;;;;11.83;95.65;98739.25;6084035;23;20021;-81
2022/11/16 10:34:51;;;;;;;4.53;2.10;;;;;;;11.82;95.18;98729.59;6150785;23;20021;-81
2022/11/16 10:37:19;;;;;;;7.10;2.05;;;;;;;11.89;95.85;98737.78;6169029;22;20044;-80
2022/11/16 10:39:52;;;;;;;4.72;2.20;;;;;;;11.86;95.46;98733.63;6148666;23;20453;-81
2022/11/16 10:42:25;;;;;;;6.90;2.40;;;;;;;11.85;94.93;98731.09;6173782;23;20456;-81
2022/11/16 10:45:06;;;;;;;4.88;1.98;;;;;;;11.81;94.21;98732.47;6174179;23;20040;-80
2022/11/16 10:47:49;;;;;;;5.85;1.90;;;;;;;11.85;94.50;98729.25;6078940;23;20100;-81
2022/11/16 10:50:36;;;;;;;3.53;1.83;;;;;;;11.82;94.42;98732.25;6084784;23;20025;-82
2022/11/16 10:53:03;;;;;;;5.68;2.13;;;;;;;11.87;94.98;98721.16;6062911;23;20017;-80
2022/11/16 10:55:29;;;;;;;5.32;2.22;;;;;;;11.90;94.96;98726.13;6063115;23;20044;-81
2022/11/16 10:58:04;;;;;;;6.22;2.10;;;;;;;11.85;94.41;98721.28;6065386;23;20438;-81
2022/11/16 11:00:48;;;;;;;9.88;2.03;;;;;;;11.91;94.62;98718.00;6063830;23;20026;-81
2022/11/16 11:03:29;;;;;;;2.38;1.90;;;;;;;11.86;94.19;98712.34;6039883;23;20026;-81
2022/11/16 11:05:57;;;;;;;7.18;2.72;;;;;;;11.94;94.73;98716.81;6135712;23;20035;-80
2022/11/16 11:08:29;;;;;;;6.28;2.13;;;;;;;11.93;94.68;98718.66;6017072;23;20047;-80
2022/11/16 11:14:04;;;;;;;6.43;2.10;;;;;;;11.84;95.30;98729.44;6036438;23;20421;-81
2022/11/16 11:16:31;;;;;;;4.47;1.88;;;;;;;11.92;96.04;98721.47;6060244;23;20116;-81
2022/11/16 11:19:16;;;;;;;8.23;2.15;;;;;;;11.81;95.65;98719.97;6121987;23;20393;-82
2022/11/16 11:21:43;;;;;;;4.32;2.00;;;;;;;11.93;96.36;98723.97;6190172;22;20087;-81
2022/11/16 11:24:17;;;;;;;6.65;2.15;;;;;;;11.93;95.97;98718.66;6174327;22;20025;-81
2022/11/16 11:27:03;;;;;;;9.02;1.85;;;;;;;12.04;95.95;98719.28;6084691;23;20084;-81
2022/11/16 11:29:33;;;;;;;5.07;1.75;;;;;;;12.09;95.39;98717.75;6122627;23;20509;-81
2022/11/16 11:32:04;;;;;;;6.63;1.92;;;;;;;12.08;95.18;98709.94;6148804;23;20151;-81
2022/11/16 11:34:34;;;;;;;5.55;1.98;;;;;;;12.11;94.95;98713.09;6149932;23;20408;-81
2022/11/16 11:37:02;;;;;;;3.35;2.00;;;;;;;12.21;94.92;98712.84;6174392;23;20025;-82
2022/11/16 11:39:35;;;;;;;6.53;2.40;;;;;;;12.27;93.99;98698.88;6173761;23;20091;-81
2022/11/16 11:42:04;;;;;;;5.60;1.85;;;;;;;12.40;94.01;98700.13;6122039;23;20024;-82
2022/11/16 11:44:57;;;;;;;2.67;1.60;;;;;;;12.37;92.78;98699.47;6173471;22;20342;-81
2022/11/16 11:47:27;;;;;;;2.58;1.60;;;;;;;12.44;92.66;98701.44;6100124;23;20436;-82
2022/11/16 11:50:21;;;;;;;4.22;1.63;;;;;;;12.37;91.74;98701.31;6148794;23;20044;-82
2022/11/16 11:52:59;;;;;;;5.20;1.70;;;;;;;12.30;90.79;98705.69;6171203;23;20023;-81
2022/11/16 11:55:26;;;;;;;5.38;1.90;;;;;;;12.34;91.20;98702.50;6171588;23;20016;-81
2022/11/16 11:57:53;;;;;;;5.50;1.58;;;;;;;12.35;91.17;98698.00;6174201;23;20444;-81
2022/11/16 12:00:20;;;;;;;3.88;1.83;;;;;;;12.30;90.83;98701.19;6125012;23;20362;-81
2022/11/16 12:03:35;;;;;;;4.38;1.60;;;;;;;12.19;89.71;98698.06;6149236;23;20468;-81
2022/11/16 12:06:07;;;;;;;3.70;2.03;;;;;;;12.24;90.41;98701.06;6064416;23;20021;-81
2022/11/16 12:08:59;;;;;;;3.27;1.70;;;;;;;12.23;90.71;98696.72;6115300;23;20085;-81
2022/11/16 12:11:34;;;;;;;6.05;2.60;;;;;;;12.26;91.22;98683.91;6044207;23;20073;-82
2022/11/16 12:14:09;;;;;;;4.15;1.92;;;;;;;12.29;90.83;98690.72;6113650;23;20021;-81
2022/11/16 12:16:44;;;;;;;2.58;1.55;;;;;;;12.29;90.71;98688.06;6062379;23;20025;-82
2022/11/16 12:19:37;;;;;;;3.40;2.00;;;;;;;12.30;90.43;98681.72;6086707;23;20021;-81
2022/11/16 12:22:09;;;;;;;2.63;1.40;;;;;;;12.30;89.97;98679.88;6062721;23;20018;-81
2022/11/16 12:24:48;;;;;;;5.55;1.60;;;;;;;12.28;89.63;98675.72;6113601;23;20026;-81
2022/11/16 12:27:38;;;;;;;2.80;1.70;;;;;;;12.27;89.05;98666.94;6136686;23;20030;-81
2022/11/16 12:30:11;;;;;;;2.92;1.60;;;;;;;12.36;89.67;98675.69;6113888;23;20486;-81